Sei sulla pagina 1di 7

D'ANNUNZIO BIKE

GARDONE RIVIERA (BS) 16/05/2021


UNICO (42 KM)

Pos Nr. Nominativo Atleta G Nato il Cat Pos Nome Squadra Tempo Gap Km/h
1 2 LOSS Enrico M 1997 OPEN 1 WILIER 7C FORCE 01:56:15.05 - 21,677
2 45 TAFFAREL Nicola M 1999 OPEN 2 WILIER 7C FORCE 01:56:19.05 +3 21,665
3 20 HEM Ole M 1992 OPEN 3 WILIER 7C FORCE 01:59:35.64 +3:20 21,071
4 1 CATTANEO Johnny M 1981 OPEN 4 WILIER 7C FORCE 01:59:37.40 +3:22 21,066
5 21 DAL GRANDE Stefano M 1990 OPEN 5 OLYMPIA FACTORY TEAM 02:00:41.14 +4:26 20,881
6 16 ZOCCARATO Nicolo' M 1997 OPEN 6 OMAP CICLI ANDREIS 02:01:17.65 +5:02 20,776
7 37 FOCCOLI Davide M 2001 OPEN 7 ASD MONTICELLI BIKE 02:03:06.89 +6:51 20,469
8 41 MAZZOLA Gianantonio M 2001 OPEN 8 NEW BIKE 2008 RACING TEAM 02:04:31.15 +8:16 20,238
9 105 DEPAUL Gabriele M 1988 M1 1 TEAM SPACEBIKES 02:05:29.40 +9:14 20,081
10 14 CARRARO Tiziano M 1985 OPEN 9 ASD CHERO GROUP TEAM SFRENATI 02:05:48.29 +9:33 20,031
11 27 BERETTA Mattia M 2002 OPEN 10 KTM - PROTEK - ELETTROSYSTEM 02:05:56.65 +9:41 20,009
12 139 COLOMBO Simone M 1977 M3 1 KTM - PROTEK - ELETTROSYSTEM 02:06:07.45 +9:52 19,980
13 119 CLAUSER Andrea M 1985 M2 1 ASD CHERO GROUP TEAM SFRENATI 02:06:09.79 +9:54 19,974
14 165 ZAMPEDRI Luca M 1976 M4 1 TEAM TODESCO 02:06:10.65 +9:55 19,972
15 150 ARICI Simone M 1980 M3 2 FM BIKE FACTORY TEAM 02:06:12.89 +9:57 19,966
16 162 PANIZ Luca M 1975 M4 2 TEAM SPACEBIKES 02:06:15.90 +10:00 19,958
17 34 CORAZZA Daniele M 1999 OPEN 11 LISSONE MTB ASD 02:06:59.77 +10:44 19,843
18 18 DONA Mattia M 1993 OPEN 12 TEAM BSR 02:07:22.89 +11:07 19,783
19 8 TONOLI Emanuele M 2000 OPEN 13 NEW BIKE 2008 RACING TEAM 02:07:33.23 +11:18 19,756
20 26 ALLODI Lorenzo M 2001 OPEN 14 NEW BIKE 2008 RACING TEAM 02:07:34.45 +11:19 19,753
21 177 FINAZZI Mattia M 1991 M1 2 LISSONE MTB ASD 02:07:44.15 +11:29 19,728
22 109 LONATI Matteo M 1989 M1 3 FLANDRES LOVE - SPORTLAND 02:08:02.80 +11:47 19,680
23 107 PINTARELLI Simone M 1985 M2 2 POLISPORTIVA BERSNTOL A.DILETTANTI 02:08:15.79 +12:00 19,647
24 527 VILLA Marco M 1980 M3 3 LISSONE MTB ASD 02:09:02.68 +12:47 19,528
25 36 FARINA Mattia M 2000 OPEN 15 LISSONE MTB ASD 02:10:01.09 +13:46 19,382
26 168 FABRIS Luca M 1991 M1 4 TEAM TODESCO 02:10:31.40 +14:16 19,307
27 141 CURNIS Alessio M 1980 M3 4 LISSONE MTB ASD 02:11:01.90 +14:46 19,232
28 164 ZAMPEDRI Andrea M 1988 M1 5 LISSONE MTB ASD 02:11:16.89 +15:01 19,195
29 167 TAVERNA Elia M 1985 M2 3 ASD BIKE AND FUN TEAM 02:11:41.27 +15:26 19,136
30 581 BONUSI Raffaello M 1992 ELMT 1 B3L TEAM 02:12:25.64 +16:10 19,029
31 15 RISATTI Nicola M 1985 OPEN 16 ASD CHERO GROUP TEAM SFRENATI 02:12:33.64 +16:18 19,010
32 124 COZZAGLIO Maicol M 1994 ELMT 2 PRO SPORT TREMOSINE ASD 02:12:56.51 +16:41 18,956
33 128 MONTANARI Roberto M 1976 M4 3 MDL RACING CREW ASD 02:13:06.04 +16:50 18,933
34 169 MAGAGNOTTI Daniele M 1966 M6 1 ASD AVESANI 02:13:39.15 +17:24 18,855
35 125 MENSI Francesco M 1982 M2 4 NIARDO FOR BIKE 02:13:49.90 +17:34 18,830
36 111 ZAMBONI Andrea M 1982 M2 5 CARINA - BRAO CAFFE' 02:14:05.65 +17:50 18,793
37 142 DE CARLO Lorenzo M 1996 ELMT 3 TEAM OLIVETO ASD 02:14:08.29 +17:53 18,787
38 156 VESENTINI Andrea M 1999 ELMT 4 VELO CLUB GARDA 02:14:20.89 +18:05 18,757
39 171 CODENOTTI Omar M 1979 M3 5 ASD STEFANA BIKE 02:14:24.40 +18:09 18,749
40 634 HINTNER Thomas M 1986 M2 6 RH RACING KRONPLATZKING 02:14:25.04 +18:09 18,748
41 43 RIGON Luca M 1999 OPEN 17 ASD CARISMA TEAM 02:14:27.90 +18:12 18,741
42 640 PAGHERA Mattia M 1999 ELMT 5 MDL RACING CREW ASD 02:14:54.87 +18:39 18,678
43 608 TONNI Luca M 1988 M1 6 RACING ROSOLA BIKE 02:15:43.28 +19:28 18,567
44 170 ZAGLIO Manfredi carlo M 1968 M5 1 ASD STEFANA BIKE 02:15:45.90 +19:30 18,561
45 330 MELESI Andrea M 1985 M2 7 TEAM COMO BIKE 02:16:24.79 +20:09 18,473
46 174 MUCCI Matteo M 1973 M4 4 TEAM COMO BIKE 02:16:26.01 +20:10 18,471
47 447 FAUSTINI Federico M 1987 M1 7 MTB ITALIA-HOT ROCK SCHOOL 02:16:37.64 +20:22 18,444
48 101 BORGOGNO Andrea M 1979 M3 6 TEAM TODESCO 02:16:38.98 +20:23 18,441
49 146 OLOVRAP Silvio M 1969 M5 2 ASD PAVAN FREE BIKE 02:17:09.40 +20:54 18,373
50 40 MANTOVANI Sebastiano M 1999 OPEN 18 OMAP CICLI ANDREIS 02:17:51.40 +21:36 18,280
51 678 GALEOTALANZA Antonio M 1983 M2 8 BONFANTI RACING TEAM 02:18:22.15 +22:07 18,212
52 309 PIGLIACAMPO Thomas M 1988 M1 8 TEAM OLIVETO ASD 02:18:36.14 +22:21 18,181
53 632 SABBADINI Daniele M 1983 M2 9 ASD FIVE TEAM 02:18:37.90 +22:22 18,178
54 113 FERRARI Andrea M 1975 M4 5 ASD CHERO GROUP TEAM SFRENATI 02:18:40.90 +22:25 18,171
55 120 COPETA Adrio M 1967 M5 3 MDL RACING CREW ASD 02:19:12.89 +22:57 18,101
56 680 MALACARNE Marco M 1986 M2 10 PEDERZOLLI ELITE SPORT 02:20:07.15 +23:52 17,985
57 175 ROSSI Daniele M 1998 ELMT 6 PRO SPORT TREMOSINE ASD 02:20:33.67 +24:18 17,928
58 232 RIVADOSSI Andrea M 1991 M1 9 ASD STEFANA BIKE 02:20:35.90 +24:20 17,923
59 161 ZUCCOLINI Carlo M 1968 M5 4 LUGAGNANO OFF ROAD 02:20:39.90 +24:24 17,915
60 204 AGOSTI Paolo M 1998 ELMT 7 ASD MTB FRANCIACORTA CAPRIOLO 02:20:41.94 +24:26 17,911

Classifiche Elaborate da SMS Sport


Pag. 1/7
D'ANNUNZIO BIKE
GARDONE RIVIERA (BS) 16/05/2021
UNICO (42 KM)

Pos Nr. Nominativo Atleta G Nato il Cat Pos Nome Squadra Tempo Gap Km/h
61 529 GIORGI Luca M 1989 M1 10 NIARDO FOR BIKE 02:20:42.89 +24:27 17,909
62 3 SALMISTRARO Stefano M 1996 OPEN 19 ASD CICLISTI PADOVANI 02:21:22.39 +25:07 17,825
63 355 FRANCHI Simone M 1991 M1 11 GUTI BIKE TEAM ASD 02:22:16.04 +26:00 17,713
64 176 CONTI Cristian M 1980 M3 7 SC BARBIERI 02:22:19.53 +26:04 17,706
65 30 BREVI Andrea M 1999 OPEN 20 LORETO LE MARMOTTE USD 02:22:20.91 +26:05 17,703
66 157 BARTESAGHI Giovanni M 1964 M6 2 ASD PAVAN FREE BIKE 02:22:21.92 +26:06 17,701
67 67 BONDAVALLI Samuele M 2003 JU 1 ASD CHERO GROUP TEAM SFRENATI 02:22:24.39 +26:09 17,696
68 697 COSENTINO Fabio M 1998 ELMT 8 TEAM MENTECORPO BY BIEMME 02:22:46.41 +26:31 17,650
69 110 COLA Fabio M 1969 M5 5 MDL RACING CREW ASD 02:22:51.40 +26:36 17,640
70 332 TOMBOLATO Andrea M 1986 M2 11 STM 02:23:05.93 +26:50 17,610
71 11 MOLON Samuele M 1996 OPEN 21 GC TEAM BIKE CASTELGOMBERTO 02:23:09.64 +26:54 17,603
72 596 CARNIELLI Davide M 1992 ELMT 9 TEAM BSR 02:23:11.00 +26:55 17,600
73 143 GIAMPA' Salvatore M 1974 M4 6 HR TEAM 02:23:15.15 +27:00 17,591
74 345 CANTONI Roger M 1972 M4 7 GUTI BIKE TEAM ASD 02:23:17.30 +27:02 17,587
75 129 SEGATA Claudio M 1973 M4 8 TEAM TODESCO 02:23:35.90 +27:20 17,549
76 213 VALENTINI Andrea M 1978 M3 8 SPRINT BIKE LUMEZZANE 02:23:47.89 +27:32 17,525
77 630 RIVA Riccardo M 1993 ELMT 10 SIRONE BIKE ASD 02:24:48.15 +28:33 17,403
78 641 BONACINA Michele M 1974 M4 9 ASD CICLI MAGGIONI 02:25:01.40 +28:46 17,377
79 536 VERLATO Samuele M 2000 ELMT 11 GC TEAM BIKE CASTELGOMBERTO 02:25:01.74 +28:46 17,376
80 592 FADDA Andrea M 1979 M3 9 MTB ITALIA-HOT ROCK SCHOOL 02:25:08.90 +28:53 17,362
81 290 RIGHETTI Simone M 1987 M1 12 FM BIKE FACTORY TEAM 02:25:11.90 +28:56 17,356
82 17 PALLAORO Christian M 1984 OPEN 22 TEAM BSR 02:25:17.16 +29:02 17,345
83 203 MADASCHI Marco M 1980 M3 10 LISSONE MTB ASD 02:25:26.03 +29:10 17,327
84 75 PERETTI Claudia F 1998 DE 1 OLYMPIA FACTORY TEAM 02:25:27.72 +29:12 17,324
85 588 TEMPONI Francesco M 1986 M2 12 MTB ITALIA-HOT ROCK SCHOOL 02:25:32.15 +29:17 17,315
86 115 CASCIOTTA Vittorio M 1963 M6 3 MTB ITALIA-HOT ROCK SCHOOL 02:25:36.91 +29:21 17,306
87 134 RUBELLI Tiziano M 1976 M4 10 VOLTA BIKE TEAM ASD 02:25:55.91 +29:40 17,268
88 269 ALGHISI Isaia M 1985 M2 13 AB BIKE RACING TEAM 02:26:03.18 +29:48 17,254
89 64 PIANTONI Andrea M 2003 JU 2 TEAM MANUEL BIKE FRM 02:26:09.26 +29:54 17,242
90 72 BURATO Chiara F 1995 DE 2 OMAP CICLI ANDREIS 02:26:17.98 +30:02 17,225
91 122 PAROLETTI Angiolino M 1964 M6 4 NIARDO FOR BIKE 02:26:25.69 +30:10 17,210
92 573 MEZZADRA Giorgio M 1983 M2 14 GRUPPO NULLI - GUBER BANCA 02:26:30.76 +30:15 17,200
93 238 RIVADOSSI Alberto M 1988 M1 13 ASD STEFANA BIKE 02:26:47.28 +30:32 17,168
94 153 RUMI Guido M 1966 M6 5 TEAM BIKE GUSSAGO 02:26:55.65 +30:40 17,151
95 511 VICENZI Daniel M 1994 ELMT 12 ASD CHERO GROUP TEAM SFRENATI 02:27:17.77 +31:02 17,108
96 615 BETTAGNO Mattia M 1985 M2 15 VALCERESIO BIKE ASD 02:27:18.21 +31:03 17,108
97 53 ALBERTI Luca giuseppe M 2003 JU 3 ASD STEFANA BIKE 02:27:25.28 +31:10 17,094
98 132 ANTONIOLI Mauro M 1964 M6 6 CICLOBIKES NONSOLOFANGO 02:27:33.03 +31:17 17,079
99 533 MOMETTI Marco M 1989 M1 14 ASD CYCLING TEAM CORTE FRANCA 02:27:38.35 +31:23 17,069
100 114 DI GERONIMO Michele M 1966 M6 7 CARINA - BRAO CAFFE' 02:27:43.97 +31:28 17,058
101 271 BALOTTA Paolo M 1976 M4 11 AB BIKE RACING TEAM 02:27:44.98 +31:29 17,056
102 160 ZIGLIOLI Daniele M 1971 M5 6 ASD GS CIGNONE 02:27:55.79 +31:40 17,035
103 155 GNATTA Bruno M 1958 M7 1 MTB ITALIA-HOT ROCK SCHOOL 02:28:00.16 +31:45 17,027
104 28 BERTOLETTI Simone M 2000 OPEN 23 ASD CICLI BETTONI 02:28:03.53 +31:48 17,020
105 348 COLOMBO Emanuele M 1980 M3 11 TEAM BICIAIO 02:28:08.02 +31:52 17,012
106 334 MASCARINI Maurizio M 1979 M3 12 ASD POSTALESIO 02:28:13.67 +31:58 17,001
107 32 COMINELLI Gionata M 2002 OPEN 24 MTB PARRE 02:28:43.18 +32:28 16,945
108 136 CANAPE Daniele M 1973 M4 12 BICI CLUB 2000 02:28:55.81 +32:40 16,921
109 22 ARCURI Ludovico M 1987 OPEN 25 CMQ CARBONHUBO 02:29:20.70 +33:05 16,874
110 173 TAFFURI Stefano M 1976 M4 13 ASD CLAMAS TEAM TERGAS EUROGRAPH 02:29:25.37 +33:10 16,865
111 275 PANCERA Stefano M 1983 M2 16 RACING ROSOLA BIKE 02:30:04.91 +33:49 16,791
112 653 GIACOMINI Andrea rodolfo M 1968 M5 7 RACING ROSOLA BIKE 02:30:05.15 +33:50 16,790
113 55 BIANCHI Stefano M 2004 JU 4 TEAM MANUEL BIKE FRM 02:30:13.42 +33:58 16,775
114 666 TRAVAGLINI Mirko M 1978 M3 13 ASD TRB HERSH RACING TEAM 02:30:25.71 +34:10 16,752
115 693 BIEMMI Federico M 1978 M3 14 FLANDRES LOVE - SPORTLAND 02:30:30.40 +34:15 16,743
116 552 GATTI Davide M 1990 M1 15 ASD RT96 02:30:40.67 +34:25 16,724
117 352 FERRARIO Giovanni M 1973 M4 14 HR TEAM 02:31:01.09 +34:46 16,687
118 565 TOMASI Massimo M 1969 M5 8 SUPREME CYCLING TEAM 02:31:16.50 +35:01 16,658
119 593 EBENESTELLI Matteo M 1996 ELMT 13 B3L TEAM 02:31:44.04 +35:28 16,608
120 346 CENEDELLA Marco M 1966 M6 8 FM BIKE FACTORY TEAM 02:31:49.15 +35:34 16,599

Classifiche Elaborate da SMS Sport


Pag. 2/7
D'ANNUNZIO BIKE
GARDONE RIVIERA (BS) 16/05/2021
UNICO (42 KM)

Pos Nr. Nominativo Atleta G Nato il Cat Pos Nome Squadra Tempo Gap Km/h
121 649 LEALI Manuel M 1987 M1 16 ASD BIKE TEAM BRUCIATI 02:31:50.74 +35:35 16,596
122 606 BERNARDI Davide antonio M 1984 M2 17 ASD GNANI BIKE TEAM 02:32:03.15 +35:48 16,573
123 324 MUSSOLIN Andrea M 1984 M2 18 ASD UGGIATESE BICI BIKE 93 02:32:14.52 +35:59 16,553
124 233 DUINA Niki M 1985 M2 19 ASD STEFANA BIKE 02:32:19.37 +36:04 16,544
125 626 FIACCADORI Davide guido M 1982 M2 20 SQUADRAREGGIO ASD 02:32:20.01 +36:04 16,543
126 319 CARRETTA Mirco M 1991 M1 17 SUPERBIKE POZZETTO 02:32:36.81 +36:21 16,512
127 343 BETTINI Andrea M 1974 M4 15 ALTA VALTELLINA BIKE 02:32:37.01 +36:21 16,512
128 665 CAMPOSANO Filippo M 1975 M4 16 FBR-ELPO BIKE ASD/STUDIO VIGNALI 02:32:37.15 +36:22 16,512
129 126 MANGERINI Baldassare M 1961 M7 2 GS ROCCABILLY 02:32:38.18 +36:23 16,510
130 65 VERTEMATI Matteo M 2004 JU 5 AXEVO-ALBA OROBIA BIKE 02:32:43.89 +36:28 16,500
131 5 BRAMBILLA Davide M 1998 OPEN 26 MTB INCREA BRUGHERIO 02:32:50.40 +36:35 16,488
132 48 TEDOLDI Daniele M 2001 OPEN 27 GS VELO MONTIRONE 02:32:53.02 +36:37 16,483
133 216 TANGHETTI Claudio M 1978 M3 15 SPRINT BIKE LUMEZZANE 02:33:05.42 +36:50 16,461
134 652 MARCHESI Matteo M 1990 M1 18 TEAM BIKE TRESCORE BALNEARIO 02:34:03.20 +37:48 16,358
135 667 PIATESI Stefano M 1967 M5 9 BARACCA LUGO 02:34:07.40 +37:52 16,351
136 340 BELLONI Fausto M 1971 M5 10 VELO CLUB GARDA 02:34:22.27 +38:07 16,324
137 76 PIANA Debora F 1989 DE 3 TEAM CINGOLANI 02:34:25.65 +38:10 16,318
138 517 GRANDI Andrea M 1988 M1 19 OMAP CICLI ANDREIS 02:34:27.15 +38:12 16,316
139 551 LAVI Fabio M 1966 M6 9 ASD TEAM CORSETTI CICLI 02:35:34.40 +39:19 16,198
140 29 BINDONI Paolo M 2001 OPEN 28 OXYGEN BIKE 02:35:35.03 +39:19 16,197
141 602 MONTICELLI Alessandro M 1987 M1 20 ASD CICLIJOLLY 02:35:41.52 +39:26 16,186
142 147 PASTORINO Umberto M 1973 M4 17 ALTA VALTELLINA BIKE 02:35:44.15 +39:29 16,181
143 123 BRENO Stefano M 1966 M6 10 GS BRESCIA BIKE 02:35:54.28 +39:39 16,164
144 218 NAVA Mario M 1964 M6 11 ASD PAVAN FREE BIKE 02:36:01.02 +39:45 16,152
145 318 PASINELLI Gian michele M 1969 M5 11 ASD UGGIATESE BICI BIKE 93 02:36:07.27 +39:52 16,141
146 244 ZOCCO Angelo franco M 1977 M3 16 POLISPORTIVA BERNATE 02:36:21.40 +40:06 16,117
147 38 GOSSI Thomas M 2000 OPEN 29 AXEVO-ALBA OROBIA BIKE 02:36:35.52 +40:20 16,093
148 625 BONACINA Andrea M 1988 M1 21 WET LIFE RIDOTTIALLOSSO 02:36:59.27 +40:44 16,052
149 166 GIUBERTONI Andrea M 1975 M4 18 ASD SC FORMIGOSA 02:37:06.27 +40:51 16,040
150 236 LEPORATI Marco M 1984 M2 21 ASD STEFANA BIKE 02:37:12.28 +40:57 16,030
151 131 MUNARO Alessandro M 1963 M6 12 OMAP CICLI ANDREIS 02:37:14.49 +40:59 16,026
152 255 MASSERDOTTI Simone M 1974 M4 19 MBO BIKE CLUB 02:37:19.27 +41:04 16,018
153 116 DEFLORIAN Willi M 1967 M5 12 ASD PELLEGRIN CYCLING TEAM 02:37:25.65 +41:10 16,007
154 242 DEIDDA Giuseppe M 1976 M4 20 NIARDO FOR BIKE 02:37:38.53 +41:23 15,986
155 522 GUADAGNINI Daniele M 1985 M2 22 TEAM BSR 02:37:47.64 +41:32 15,970
156 207 RUTA Claudio M 1968 M5 13 ASD RT96 02:37:55.07 +41:40 15,958
157 679 CABRINI Andrea M 1999 ELMT 14 B3L TEAM 02:37:57.39 +41:42 15,954
158 220 NICOLINI Sergio M 1971 M5 14 RACING ROSOLA BIKE 02:38:00.53 +41:45 15,948
159 523 COPPIARDI Giorgio M 1975 M4 21 TEAM ERRE BIKE 02:38:04.52 +41:49 15,942
160 449 ZAMBELLI Alberto M 1967 M5 15 MTB SOPRAZOCCO 02:38:10.42 +41:55 15,932
161 583 POLI Alessandro M 1982 M2 23 TEAM BENETTI 02:38:11.63 +41:56 15,930
162 117 GILBERTI Marco M 1966 M6 13 RACING ROSOLA BIKE 02:38:15.27 +42:00 15,924
163 62 GRANATA Filippo M 2004 JU 6 AXEVO-ALBA OROBIA BIKE 02:38:20.37 +42:05 15,915
164 226 ALDRIGHETTI Gabriele M 1979 M3 17 ASD TEAM CORSETTI CICLI 02:38:24.41 +42:09 15,908
165 570 VIGANO' Davide M 2001 ELMT 15 NOSURRENDER CYCLING TEAM ASD 02:38:29.93 +42:14 15,899
166 228 BUSSI Giacomo M 1991 M1 22 MTB SOPRAZOCCO 02:38:36.52 +42:21 15,888
167 654 COPERCINI Alessio M 1981 M3 18 COMITATO UISP PARMA 02:39:13.77 +42:58 15,826
168 273 RUMI Fulvio M 1970 M5 16 BUSSACCHINI LUIGI ASD 02:39:27.51 +43:12 15,803
169 547 POLO Alberto M 1973 M4 22 ASD ZONE RACING TEAM 02:39:46.65 +43:31 15,772
170 209 TRENTINI Daniele M 1985 M2 24 ASD MTB FRANCIACORTA CAPRIOLO 02:40:19.52 +44:04 15,718
171 77 MAZZUCOTELLI Simona F 1977 DE 4 GS MASSI' SUPERMERCATI 02:40:28.66 +44:13 15,703
172 1004 CE' Simona F 1976 W2 1 MTB PERTICA BASSA ASD 02:40:36.73 +44:21 15,690
173 516 GATTI Francesco M 1982 M2 25 ASD TEAM BIANCHI ZANZARIERE 02:40:54.16 +44:39 15,662
174 149 RIVA Giovanni giacinto M 1967 M5 17 ASD GEFO 02:41:18.83 +45:03 15,622
175 675 BARBIERI Luca M 1986 M2 26 ASD TECSO FIAMME ALTE 02:41:24.40 +45:09 15,613
176 322 OLIVETO Antonio M 1982 M2 27 HR TEAM 02:41:44.17 +45:29 15,581
177 230 MINIATI Luca M 1987 M1 23 GARDA LAKE ASD 02:41:51.91 +45:36 15,569
178 336 PICOTTI Roberto M 1990 M1 24 ASD FIVE TEAM 02:42:22.09 +46:07 15,520
179 622 VINAGLIO Filippo M 1996 ELMT 16 SPRITZ BIKERS 02:42:29.52 +46:14 15,508
180 644 ARESTILLI Roberto M 1982 M2 28 LISSONE MTB ASD 02:42:32.19 +46:17 15,504

Classifiche Elaborate da SMS Sport


Pag. 3/7
D'ANNUNZIO BIKE
GARDONE RIVIERA (BS) 16/05/2021
UNICO (42 KM)

Pos Nr. Nominativo Atleta G Nato il Cat Pos Nome Squadra Tempo Gap Km/h
181 582 TAMBURRI Andrea M 1978 M3 19 TEAM BENETTI 02:42:51.80 +46:36 15,473
182 662 FERRARO Marco M 1977 M3 20 VALCERESIO BIKE ASD 02:43:01.17 +46:46 15,458
183 329 DORIGO Giulio dino lodovico M 1974 M4 23 ASD COLOGNESE BIKE 02:43:02.15 +46:47 15,457
184 337 GRAMISCI Andrea M 1979 M3 21 ASD CICLIMANT-S RACING TEAM 02:43:02.90 +46:47 15,456
185 650 ZEBRO Danilo M 1975 M4 24 LISSONE MTB ASD 02:43:04.40 +46:49 15,453
186 563 CANNIZZARO Riccardo M 1975 M4 25 SUPREME CYCLING TEAM 02:43:32.28 +47:17 15,409
187 548 GRIGIS Marco M 1975 M4 26 LORETO LE MARMOTTE USD 02:43:37.74 +47:22 15,401
188 159 RONDINELLI Massimo M 1976 M4 27 TEAM COMO BIKE 02:43:50.42 +47:35 15,381
189 46 FIORIO Nicolas M 2002 OPEN 30 TEAM VERONA MTB 02:44:20.54 +48:05 15,334
190 669 ROTA Cristiano M 1973 M4 28 ASD MTB SUISIO 02:44:35.40 +48:20 15,311
191 605 MICHELINI Enzo M 1965 M6 14 BICI PER TUTTI ASD 02:44:39.65 +48:24 15,304
192 450 MORA Daniele M 1977 M3 22 MTB SOPRAZOCCO 02:44:42.90 +48:27 15,299
193 444 PEDERZANI Marco M 1980 M3 23 OXYGEN BIKE 02:44:44.15 +48:29 15,297
194 600 SAIANI Paolo M 1970 M5 18 A.S.D. AURORA 1998 02:45:03.93 +48:48 15,267
195 617 FIORINA Andrea M 1985 M2 29 TEAM OOP! - MOOVEO - OXTBURN 02:45:23.66 +49:08 15,236
196 246 GUSMEROLI Leonardo M 1969 M5 19 BIKE TEAM MANDELLO 02:45:27.02 +49:11 15,231
197 521 ZADRA Cristian M 1993 ELMT 17 TEAM BSR 02:45:27.41 +49:12 15,231
198 614 ZAGARIA Francesco M 1972 M4 29 ASD TEAM XBIKE 02:45:29.09 +49:14 15,228
199 637 TRALDI Erik M 1988 M1 25 TEAM SCULAZZO ITALIA 02:45:34.66 +49:19 15,219
200 205 LINETTI Fabio M 1980 M3 24 ASD MTB FRANCIACORTA CAPRIOLO 02:45:36.66 +49:21 15,216
201 557 KHOUYA Sami M 1998 ELMT 18 GARDA LAKE ASD 02:45:56.25 +49:41 15,186
202 295 GOSETTI Emanuele M 1978 M3 25 MTB SOPRAZOCCO 02:46:27.90 +50:12 15,138
203 528 SALSI Stefano M 1963 M6 15 SQUADRAREGGIO ASD 02:46:48.68 +50:33 15,107
204 151 ARICI Leonardo M 1959 M7 3 RACING ROSOLA BIKE 02:46:51.41 +50:36 15,103
205 524 BELLERI Riccardo M 1974 M4 30 BUSSACCHINI LUIGI ASD 02:46:54.25 +50:39 15,098
206 353 FINATTI Davide M 1987 M1 26 TEAM MTB LOMAZZO 02:46:56.48 +50:41 15,095
207 308 GENNARI Luca M 1972 M4 31 TITICI ADVENTURE TEAM 02:46:59.52 +50:44 15,091
208 135 BONDIONI Tiziano M 1981 M3 26 NIARDO FOR BIKE 02:47:22.27 +51:07 15,056
209 71 BERTULLI Riccardo M 2004 JU 7 GS VELO MONTIRONE 02:47:37.65 +51:22 15,033
210 223 TIRELLI Stefano M 1982 M2 30 ASD MTB FRANCIACORTA CAPRIOLO 02:47:40.15 +51:25 15,030
211 240 FUSI Andrea M 1997 ELMT 19 ASD STEFANA BIKE 02:47:52.66 +51:37 15,011
212 73 GUERRERA Martina F 1998 DE 5 MTB INCREA BRUGHERIO 02:47:53.91 +51:38 15,009
213 519 BELOTTI Fabio M 1969 M5 20 TEAM SPACEBIKES 02:47:59.77 +51:44 15,000
214 647 ACCURSO Michele M 1999 ELMT 20 GUTI BIKE TEAM ASD 02:48:27.09 +52:12 14,960
215 31 COMINCINI Gabriele M 2002 OPEN 31 GRUPPO NULLI - GUBER BANCA 02:48:45.18 +52:30 14,933
216 610 ORLANDO Elis M 1978 M3 27 VALCERESIO BIKE ASD 02:48:49.27 +52:34 14,927
217 532 CURCI Andrea M 1984 M2 31 TEAM OOP! - MOOVEO - OXTBURN 02:49:14.39 +52:59 14,890
218 578 CAVION Andrea M 1970 M5 21 TEAM ECOR MTB SCHIO 02:49:17.79 +53:02 14,885
219 643 FESTI Paolo M 1976 M4 32 TEAM EXECUTIVE 02:49:20.91 +53:05 14,881
220 539 BORTOLOTTI Paolo M 1965 M6 16 GSC SALO' 02:49:38.39 +53:23 14,855
221 247 COBELLI Marco M 1971 M5 22 PRO SPORT TREMOSINE ASD 02:49:39.33 +53:24 14,854
222 243 LAROCCA Andrea orazio ferruccio M 1987 M1 27 POLISPORTIVA BERNATE 02:50:05.01 +53:49 14,816
223 530 SBERNA Ennio M 1971 M5 23 TEAM ERRE BIKE 02:50:14.90 +53:59 14,802
224 1002 MANDELLI Chiara F 1972 W2 2 TEAM SPACEBIKES 02:50:17.14 +54:02 14,799
225 217 BELLERI Alessandro M 1970 M5 24 BUSSACCHINI LUIGI ASD 02:50:22.76 +54:07 14,791
226 609 FRIGERIO Alessandro M 1965 M6 17 LISSONE MTB ASD 02:50:52.15 +54:37 14,748
227 657 ALLODI Paolo M 1970 M5 25 SPRITZ BIKERS 02:50:58.52 +54:43 14,739
228 12 BENETTI Matteo M 1998 OPEN 32 GC TEAM BIKE CASTELGOMBERTO 02:51:05.50 +54:50 14,729
229 144 MARCHETTI Andrea M 1976 M4 33 WET LIFE RIDOTTIALLOSSO 02:51:10.90 +54:55 14,721
230 219 TAGLIAFERRI Fulvio M 1981 M3 28 ASD POLISPORTIVA 2 ACERI 02:51:18.39 +55:03 14,710
231 594 IEMMI Gianluca M 1964 M6 18 ASD PEDALE FIDENTINO 02:51:59.53 +55:44 14,652
232 294 GHIRARDI Andrea M 1975 M4 34 MTB SOPRAZOCCO 02:52:05.96 +55:50 14,643
233 84 ZANGA Marta F 2002 DE 6 KTM - PROTEK - ELETTROSYSTEM 02:52:12.90 +55:57 14,633
234 656 RAVAZZONI Stefano M 1968 M5 26 SPRITZ BIKERS 02:52:35.66 +56:20 14,601
235 211 GARATTINI Valerio M 1957 M7 4 NIARDO FOR BIKE 02:52:44.39 +56:29 14,588
236 133 CIMA Fabrizio M 1960 M7 5 TITICI ADVENTURE TEAM 02:52:47.83 +56:32 14,584
237 328 VENTURI Rinaldo M 1979 M3 29 ASD MTB FRANCIACORTA CAPRIOLO 02:52:55.84 +56:40 14,572
238 66 ZORZI Luca M 2004 JU 8 ASD MONTICELLI BIKE 02:52:59.15 +56:44 14,568
239 534 BULLA Alessandro M 1979 M3 30 ASD BOTTANUCO MTB RACING TEM 02:53:01.76 +56:46 14,564
240 555 SARDINI Mauro M 1961 M7 6 ASD CICLIMANT-S RACING TEAM 02:53:33.75 +57:18 14,519

Classifiche Elaborate da SMS Sport


Pag. 4/7
D'ANNUNZIO BIKE
GARDONE RIVIERA (BS) 16/05/2021
UNICO (42 KM)

Pos Nr. Nominativo Atleta G Nato il Cat Pos Nome Squadra Tempo Gap Km/h
241 543 CERESA Stefano M 1966 M6 19 BONFANTI RACING TEAM 02:54:08.65 +57:53 14,471
242 642 GUERZONI Andrea M 1982 M2 32 ASD CICLI BACCHETTI 02:54:35.40 +58:20 14,434
243 333 MASCIADRI Giorgio M 1978 M3 31 BICI CLUB 2000 02:54:43.25 +58:28 14,423
244 212 VINATI Fabio M 1973 M4 35 BUSSACCHINI LUIGI ASD 02:55:04.65 +58:49 14,394
245 70 ZECCHINELLI Roberto antonio M 2004 JU 9 TEAM VERONA MTB 02:55:22.66 +59:07 14,369
246 202 BRAGHIERI Stefano M 1969 M5 27 RACING ROSOLA BIKE 02:55:47.26 +59:32 14,335
247 335 LISCIANDRELLO Fabio M 1972 M4 36 ALBY BIKE ASD 02:55:55.90 +59:40 14,324
248 572 RIZZI Nicola M 1998 ELMT 21 ASD TECNOTEAM 02:56:28.89 +01:00:13 14,279
249 598 GORLA Eros M 1979 M3 32 APE E BICI 02:56:32.43 +01:00:17 14,274
250 597 MSADEK Youness M 1994 ELMT 22 INDIVIDUALE 02:56:47.50 +01:00:32 14,254
251 68 ROTA Massimo M 2004 JU 10 BONFANTI RACING TEAM 02:57:02.00 +01:00:46 14,235
252 140 CRIPPA Nicolas M 1993 ELMT 23 ASD TEAM XBIKE 02:57:18.27 +01:01:03 14,213
253 589 FRANZONI Enea M 1970 M5 28 MTB ITALIA-HOT ROCK SCHOOL 02:57:31.45 +01:01:16 14,195
254 127 FRANCHINI Gianpietro M 1961 M7 7 MTB ITALIA-HOT ROCK SCHOOL 02:57:31.65 +01:01:16 14,195
255 560 PEZZOLI Federico M 1999 ELMT 24 LORETO LE MARMOTTE USD 02:57:35.52 +01:01:20 14,190
256 676 MADASCHI Luca M 1989 M1 28 ASD TECSO FIAMME ALTE 02:57:51.99 +01:01:36 14,168
257 658 SONZOGNI Daniele M 1975 M4 37 FTC EQUIPE ASD 02:58:02.15 +01:01:47 14,154
258 556 FRIGERIO Marco M 1970 M5 29 ASD CICLIMANT-S RACING TEAM 02:58:09.65 +01:01:54 14,145
259 350 DENTI Andrea pablo M 1974 M4 38 ASD UGGIATESE BICI BIKE 93 02:58:40.15 +01:02:25 14,104
260 613 GROTTI Marco M 1987 M1 29 TEAM VIPER TICINO 02:58:57.75 +01:02:42 14,081
261 253 MAFFONI Cesare M 1964 M6 20 MBO BIKE CLUB 02:59:08.42 +01:02:53 14,067
262 13 BONZANINI Angelo M 1994 OPEN 33 T°RED FACTORY RACING 02:59:26.75 +01:03:11 14,043
263 629 TURINA Christian M 1966 M6 21 GARDONE IN BIKE 02:59:45.31 +01:03:30 14,019
264 257 VETTORE Marco M 1979 M3 33 MBO BIKE CLUB 02:59:56.41 +01:03:41 14,005
265 262 GEA Alessandro M 1968 M5 30 ROCK amp; ROAD BIKE FRT 03:00:00.10 +01:03:45 14,000
266 58 DANELLI Davide M 2004 JU 11 MTB INCREA BRUGHERIO 03:00:38.65 +01:04:23 13,950
267 661 COSLOP Giovanni M 1960 M7 8 TEAM BSR 03:00:40.48 +01:04:25 13,948
268 214 GATTA Elvis M 1985 M2 33 SPRINT BIKE LUMEZZANE 03:00:46.15 +01:04:31 13,940
269 659 CARRA Rocco M 1964 M6 22 SPRITZ BIKERS 03:00:53.44 +01:04:38 13,931
270 314 TONOLI Marco M 1963 M6 23 TITICI ADVENTURE TEAM 03:01:06.65 +01:04:51 13,914
271 504 ARIENI Sergio M 1977 M3 34 FLANDRES LOVE - SPORTLAND 03:01:16.98 +01:05:01 13,901
272 446 FORNI Roberto M 1991 M1 30 INDIVIDUALE 03:01:30.96 +01:05:15 13,883
273 280 SARDO Salvatore M 1974 M4 39 INDIVIDUALE 03:01:55.90 +01:05:40 13,851
274 540 PLEBANI Enrico M 1969 M5 31 ASD SCUDERIA CICLISTICA VERZELLETTI 03:02:06.49 +01:05:51 13,838
275 82 ZINI Marta F 2003 DJ 1 TEAM VERONA MTB 03:02:13.90 +01:05:58 13,829
276 300 GUERRA Adam M 1975 M4 40 ASD CICLI BACCHETTI 03:02:21.66 +01:06:06 13,819
277 281 SALA Mattia M 1994 ELMT 25 POLISPORTIVA BERNATE 03:02:42.40 +01:06:27 13,793
278 320 CARRETTA Lucio M 1966 M6 24 SUPERBIKE POZZETTO 03:02:57.19 +01:06:42 13,774
279 635 BENETTI Andrea M 1970 M5 32 GC TEAM BIKE CASTELGOMBERTO 03:02:57.65 +01:06:42 13,773
280 586 CARRENO LUQUE Pierluigi M 1999 ELMT 26 MTB ITALIA-HOT ROCK SCHOOL 03:03:03.15 +01:06:48 13,767
281 595 VALENTINI Stefano M 1984 M2 34 MDL RACING CREW ASD 03:03:43.40 +01:07:28 13,716
282 512 PACE Matteo M 1969 M5 33 FLANDRES LOVE - SPORTLAND 03:03:52.25 +01:07:37 13,705
283 148 RADAELLI Samuele angelo M 1964 M6 25 ASD TEAM XBIKE 03:04:58.66 +01:08:43 13,623
284 645 PODDA Giovanni M 1959 M7 9 PORTOSCUSO 03:05:14.83 +01:08:59 13,603
285 112 LANFREDI Nicolas M 1992 ELMT 27 ASD CHERO GROUP TEAM SFRENATI 03:05:37.44 +01:09:22 13,576
286 550 PASQUALI Marco M 1982 M2 35 ISOLPI RACING TEAM 03:06:03.15 +01:09:48 13,545
287 251 LAURO Marco M 1964 M6 26 MBO BIKE CLUB 03:06:10.87 +01:09:55 13,535
288 682 BAVELLONI Giorgio M 1972 M4 41 GEMINI TEAM ASD 03:06:15.91 +01:10:00 13,529
289 63 PARZANI Samuele M 2003 JU 12 GRUPPO NULLI - GUBER BANCA 03:06:31.24 +01:10:16 13,511
290 317 SCANNAVINI Massimo M 1975 M4 42 TEAM TODESCO 03:06:53.22 +01:10:38 13,484
291 671 CHIARI Massimiliano M 1974 M4 43 GS FRANCESCONI 03:07:36.65 +01:11:21 13,432
292 627 SCHIATTI Federico M 1990 M1 31 SQUADRAREGGIO ASD 03:07:41.89 +01:11:26 13,426
293 686 COSTA Dario M 1974 M4 44 GEMINI TEAM ASD 03:07:45.65 +01:11:30 13,421
294 138 CARAMASCHI Carlo M 1962 M6 27 HR TEAM 03:07:47.40 +01:11:32 13,419
295 237 TAGLIETTI Andrea M 1975 M4 45 ASD STEFANA BIKE 03:08:15.76 +01:12:00 13,386
296 341 BERTONI Mirco M 1971 M5 34 FM BIKE FACTORY TEAM 03:08:23.30 +01:12:08 13,377
297 604 MELONI Giacomo M 1983 M2 36 FM BIKE FACTORY TEAM 03:08:23.50 +01:12:08 13,376
298 683 CAMINITI Alessandro M 1974 M4 46 GEMINI TEAM ASD 03:08:37.15 +01:12:22 13,360
299 525 PELIZZARI Alberto M 1957 M7 10 ASD GAGABIKE TEAM 03:09:11.94 +01:12:56 13,319
300 631 QUERCI Elia M 1975 M4 47 SC BARBIERI 03:09:13.65 +01:12:58 13,317

Classifiche Elaborate da SMS Sport


Pag. 5/7
D'ANNUNZIO BIKE
GARDONE RIVIERA (BS) 16/05/2021
UNICO (42 KM)

Pos Nr. Nominativo Atleta G Nato il Cat Pos Nome Squadra Tempo Gap Km/h
301 620 MAFFEZZOLI Andrea M 1996 ELMT 28 ASD VIADANA BIKE 03:09:19.21 +01:13:04 13,311
302 252 LAURANDI Rocco M 1987 M1 32 MBO BIKE CLUB 03:09:32.22 +01:13:17 13,296
303 673 ALIANO Roberto M 1969 M5 35 TEAM ECOR MTB SCHIO 03:09:33.40 +01:13:18 13,294
304 74 ONGARO Anna F 1988 DE 7 GRUPPO NULLI - GUBER BANCA 03:09:37.91 +01:13:22 13,289
305 616 AGNETTI Massimiliano M 1973 M4 48 GS SCAVEZZON SQUADRA CORSE 03:09:54.51 +01:13:39 13,270
306 607 LUPPINO Mattia M 1989 M1 33 VC OGGIONO 03:09:58.07 +01:13:43 13,265
307 349 DELL'AVA Flavio M 1958 M7 11 ASD US CHIAVENNESE 03:10:10.92 +01:13:55 13,250
308 575 LEIDI Nicolo M 2001 ELMT 29 LORETO LE MARMOTTE USD 03:10:27.15 +01:14:12 13,232
309 690 VENDRAMEL Giovanni M 1973 M4 49 GEMINI TEAM ASD 03:10:34.65 +01:14:19 13,223
310 283 RIVA Andrea M 1980 M3 35 ASD GRUPPO SPORTIVO S.SIRO 2001 03:10:49.64 +01:14:34 13,206
311 284 COLOSIO Massimo M 1977 M3 36 MDL RACING CREW ASD 03:11:18.73 +01:15:03 13,172
312 559 TONEGATTI Nicola M 1993 ELMT 30 MBO BIKE CLUB 03:11:40.15 +01:15:25 13,148
313 549 MACCARINI Gianluca M 1976 M4 50 GARDA LAKE ASD 03:11:41.74 +01:15:26 13,146
314 1003 SENECI Roberta F 1966 W2 3 RACING ROSOLA BIKE 03:12:01.15 +01:15:46 13,124
315 569 MATTIOTTI Gianluigi M 1979 M3 37 GARDA LAKE ASD 03:12:04.90 +01:15:49 13,119
316 568 MIHELCIC Marco M 1990 M1 34 SUPREME CYCLING TEAM 03:12:23.99 +01:16:08 13,098
317 591 CAVALLERI Sergio M 1983 M2 37 MTB ITALIA-HOT ROCK SCHOOL 03:12:53.40 +01:16:38 13,064
318 507 GALTER Cristian M 1992 ELMT 31 CARINA - BRAO CAFFE' 03:13:21.40 +01:17:06 13,033
319 668 PRAT CASIMIRO Julian M 1971 M5 36 CASSINIS CYCLING TEAM 03:13:26.47 +01:17:11 13,027
320 660 FACCIO Giacinto M 1966 M6 28 TEAM EXECUTIVE 03:13:32.35 +01:17:17 13,021
321 172 REDAELLI Giuseppe M 1961 M7 12 SIRONE BIKE ASD 03:13:57.90 +01:17:42 12,992
322 503 SCALMANA Fabio M 1965 M6 29 GARDA LAKE ASD 03:14:17.84 +01:18:02 12,970
323 677 LUCCHINI Stefano M 1993 ELMT 32 ASD TECSO FIAMME ALTE 03:14:25.98 +01:18:10 12,961
324 692 CAMINITA Giovanni M 1983 M2 38 UMBERTIDE CYCLING TEAM 03:14:27.40 +01:18:12 12,959
325 544 BERTOLDI Manuel M 1985 M2 39 TEAM BSR 03:14:56.01 +01:18:40 12,927
326 239 ZANOLA Alessandro M 1965 M6 30 ASD STEFANA BIKE 03:15:09.49 +01:18:54 12,913
327 638 TRALDI Marco M 1967 M5 37 TEAM SCULAZZO ITALIA 03:15:28.51 +01:19:13 12,892
328 221 LOMBONI Domenico M 1962 M6 31 ASD LAKOTA BIKE RONZONI 03:15:37.40 +01:19:22 12,882
329 698 BONAITA Giacomo bruno M 1984 M2 40 LORETO LE MARMOTTE USD 03:15:41.39 +01:19:26 12,878
330 222 SANTULLI Renato M 1972 M4 51 ASD MTB FRANCIACORTA CAPRIOLO 03:16:18.41 +01:20:03 12,837
331 158 MAURI Alessio M 1975 M4 52 TEAM COMO BIKE 03:16:28.79 +01:20:13 12,826
332 515 PEREGO Luca M 1981 M3 38 VINCE ASD 03:16:57.99 +01:20:42 12,794
333 628 CERRI Andrea vittorio M 1975 M4 53 SARTORIA CICLISTICA - FAEMA 03:17:31.00 +01:21:15 12,758
334 695 CHIARA Luca M 1983 M2 41 ASD TEAM LENO PATA CICLI DOTTI 03:17:52.15 +01:21:37 12,736
335 684 CANATO Pietro paolo M 1980 M3 39 GEMINI TEAM ASD 03:19:04.24 +01:22:49 12,659
336 603 STOLL Markus M 1965 M6 32 RH RACING KRONPLATZKING 03:19:24.25 +01:23:09 12,638
337 61 GATTI Matteo M 2003 JU 13 GRUPPO NULLI - GUBER BANCA 03:20:13.91 +01:23:58 12,585
338 554 BERTUOLA Davide M 1990 M1 35 ASD TEAM DDM 99 03:20:41.15 +01:24:26 12,557
339 293 ARCHETTI Stefano M 1973 M4 54 TEAM PITON 03:21:01.86 +01:24:46 12,535
340 531 PREMOLI Stefano M 1985 M2 42 ASD TEAM BIKE VALLEGRECANICA 03:21:20.80 +01:25:05 12,516
341 639 NUCERA Christian M 1985 M2 43 ASD TEAM BIKE VALLEGRECANICA 03:21:21.07 +01:25:06 12,515
342 672 PLEBANI Fabio M 1969 M5 38 ASD SCUDERIA CICLISTICA VERZELLETTI 03:21:24.90 +01:25:09 12,511
343 696 NUCIFORO Federico M 1983 M2 44 ASD STEFANA BIKE 03:21:29.83 +01:25:14 12,506
344 225 SUCCOIA Antonio M 1973 M4 55 RACING ROSOLA BIKE 03:21:34.20 +01:25:19 12,502
345 137 CAPELLI Fulvio M 1986 M2 45 HR TEAM 03:21:53.23 +01:25:38 12,482
346 310 COMINOTTI Mattia M 1975 M4 56 TITICI ADVENTURE TEAM 03:22:15.90 +01:26:00 12,459
347 1007 BERETTA Simona F 1985 W1 1 WET LIFE RIDOTTIALLOSSO 03:22:21.89 +01:26:06 12,453
348 338 ARRIGO Giuliano M 1989 M1 36 ASD UGGIATESE BICI BIKE 93 03:22:26.77 +01:26:11 12,448
349 282 PERNIGO Massimo M 1962 M6 33 GARDONE IN BIKE 03:22:30.39 +01:26:15 12,444
350 289 CUNSOLO Paolo M 1979 M3 40 ASD FREE BIKE ERBUSCO 03:22:56.40 +01:26:41 12,417
351 301 PATERLINI Angelo M 1980 M3 41 ASD CICLI BACCHETTI 03:23:11.45 +01:26:56 12,402
352 520 PASINI Daniel M 1980 M3 42 GARDONE IN BIKE 03:23:53.60 +01:27:38 12,359
353 272 ZUNNUI Nicola M 1967 M5 39 LISSONE MTB ASD 03:24:02.93 +01:27:47 12,350
354 651 TREVISAN Filippo M 1990 M1 37 BIKERS PETOSINO 03:26:11.71 +01:29:56 12,221
355 448 BERTOCCHI Andrea M 1996 ELMT 33 GS VELO MONTIRONE 03:26:21.40 +01:30:06 12,212
356 339 GRANATA Luigi M 1967 M5 40 ROCK amp; ROAD BIKE FRT 03:26:26.22 +01:30:11 12,207
357 256 SIGNORONI Claudio M 1958 M7 13 MBO BIKE CLUB 03:26:28.15 +01:30:13 12,205
358 571 MEDDA Riccardo M 1986 M2 46 NOSURRENDER CYCLING TEAM ASD 03:26:33.77 +01:30:18 12,200
359 513 GABARDINI Cristiano M 1970 M5 41 GARDONE IN BIKE 03:27:12.89 +01:30:57 12,161
360 546 BISOGNO Lorenzo M 1967 M5 42 GEMINI TEAM ASD 03:27:40.34 +01:31:25 12,135

Classifiche Elaborate da SMS Sport


Pag. 6/7
D'ANNUNZIO BIKE
GARDONE RIVIERA (BS) 16/05/2021
UNICO (42 KM)

Pos Nr. Nominativo Atleta G Nato il Cat Pos Nome Squadra Tempo Gap Km/h
361 261 GHILARDI Francesco M 1982 M2 47 ASD BECYCLE TEAM 03:28:48.98 +01:32:33 12,068
362 624 LOVISON Giancarlo M 1965 M6 34 TEAM ECOR MTB SCHIO 03:29:31.97 +01:33:16 12,027
363 296 FRANZONI Gianluca M 1967 M5 43 MTB SOPRAZOCCO 03:29:34.90 +01:33:19 12,024
364 664 FARENGA Antonio M 1968 M5 44 GEMINI TEAM ASD 03:30:37.18 +01:34:22 11,965
365 118 CARNEVALI Mattia M 1997 ELMT 34 ASD CHERO GROUP TEAM SFRENATI 03:30:48.39 +01:34:33 11,954
366 655 PIAZZA Roberto M 1965 M6 35 SPRITZ BIKERS 03:30:56.86 +01:34:41 11,946
367 268 GUIDA Gianni M 1970 M5 45 ASD NEW DOWNHILL 03:31:31.98 +01:35:16 11,913
368 60 GASPARETTO Filippo M 2004 JU 14 OXYGEN BIKE 03:32:25.39 +01:36:10 11,863
369 618 OREGIO CATELAN Alex M 1980 M3 43 GS FREETIME 03:32:42.71 +01:36:27 11,847
370 250 FORMENTI Silvio M 1981 M3 44 MBO BIKE CLUB 03:34:04.44 +01:37:49 11,772
371 699 CASTELLI Mauro M 1972 M4 57 LORETO LE MARMOTTE USD 03:34:20.15 +01:38:05 11,757
372 326 MIGLIAVACCA Marco M 1986 M2 48 ROCK amp; ROAD BIKE FRT 03:35:13.39 +01:38:58 11,709
373 331 PIALORSI Maurizio M 1967 M5 46 MTB PERTICA BASSA ASD 03:36:40.72 +01:40:25 11,630
374 535 BELOTTI Andrea M 1991 M1 38 A.S.D.TEAM BARRO'S BIKE 03:37:11.39 +01:40:56 11,603
375 215 ALABASTRI Luca M 1982 M2 49 SPRINT BIKE LUMEZZANE 03:37:23.79 +01:41:08 11,592
376 577 MAMBELLA Matteo M 1986 M2 50 TEAM ARES BOLZANO 03:37:39.41 +01:41:24 11,578
377 648 COZZAGLIO Loris M 1987 M1 39 PRO SPORT TREMOSINE ASD 03:38:16.93 +01:42:01 11,545
378 694 BATTISTONI Andrea M 1979 M3 45 ASD SWATT CLUB 03:38:48.78 +01:42:33 11,517
379 83 MANZA Monica F 2003 DJ 2 OXYGEN BIKE 03:39:24.21 +01:43:09 11,486
380 509 PIOL Francesco M 1958 M7 14 EL CORIDOR TEAM 03:39:24.40 +01:43:09 11,486
381 542 MARTIGNAGO Mirco M 1973 M4 58 PRESA XXII 03:39:27.64 +01:43:12 11,483
382 562 PIGNATELLI Luca M 1964 M6 36 GARDA LAKE ASD 03:40:25.64 +01:44:10 11,432
383 663 JACOPETTI Marco M 1963 M6 37 SC BARBIERI 03:41:21.40 +01:45:06 11,384
384 545 MOTTA Alessandro M 1994 ELMT 35 TEAM PIANETA BICI 03:41:26.14 +01:45:11 11,380
385 674 GIACOMINI Stefano M 1971 M5 47 ASD TECSO FIAMME ALTE 03:41:38.91 +01:45:23 11,369
386 691 QUIRCI Sergio M 1969 M5 48 GEMINI TEAM ASD 03:42:40.89 +01:46:25 11,317
387 646 PARDOLESI Luca M 1975 M4 59 ASD ISPERIA CICLI ROMEO 03:44:20.20 +01:48:05 11,233
388 687 GIANCOLA Davide M 1976 M4 60 GEMINI TEAM ASD 03:44:40.39 +01:48:25 11,216
389 315 PASOTTI Francesco M 1992 ELMT 36 HR TEAM 03:46:34.39 +01:50:19 11,122
390 538 FERRARI Roberto M 1959 M7 15 FIT-LOSOPHY SRL SD 03:48:28.42 +01:52:13 11,030
391 584 LAFFRANCHI Dario M 1990 M1 40 MTB PERTICA BASSA ASD 03:50:36.71 +01:54:21 10,927
392 526 CONTI Cristian M 1977 M3 46 RACING ROSOLA BIKE 03:51:08.42 +01:54:53 10,902
393 263 BACCHETTI Manuel nicola M 1977 M3 47 MTB PERTICA BASSA ASD 03:54:25.08 +01:58:10 10,750
394 541 BELLI Giuseppe M 1958 M7 16 ASD SCUDERIA CICLISTICA VERZELLETTI 03:54:36.33 +01:58:21 10,741
395 537 MELCHIODI Ermanno M 1971 M5 49 ASD SCUDERIA CICLISTICA VERZELLETTI 03:54:38.35 +01:58:23 10,740
396 56 CANCEDDA Eros M 2004 JU 15 MTB INCREA BRUGHERIO 03:54:42.71 +01:58:27 10,737
397 342 BESCAPE Mauro M 1975 M4 61 ROCK amp; ROAD BIKE FRT 03:58:30.53 +02:02:15 10,566
398 633 STEFANI Alberto M 1975 M4 62 TEAM ECOR MTB SCHIO 04:02:36.70 +02:06:21 10,387
399 145 MARITAN Antonio M 1952 M8 1 ADVENTURE E BIKE 04:03:34.43 +02:07:19 10,346
400 689 VALENTINI Fabio M 1973 M4 63 GEMINI TEAM ASD 04:09:38.69 +02:13:23 10,094
401 681 CHIP NON ASSOCIATO 50114014 M 1971 M5 50 *** 04:11:15.70 +02:15:00 10,029
402 688 VALARANI Graziano M 1969 M5 51 GEMINI TEAM ASD 04:13:29.67 +02:17:14 9,941